»·PEaware :: N221XG KIYK-KSAN

N221XG :: KIYK-KSAN

FLIGHT INFORMATION

Flight Status: Arrived
Operator: Privately registered:
United States
More flights under this callsign
Pilot: Ryan L. (9775)
Aircraft: BEECH AIRCRAFT SUPER KING AIR 350
(B350)
More flights by this aircraft type
Origin: KIYK Inyokern
United States
Destination: KSAN San Diego Intl-Lindbergh
United States
More flights between these airports :: More routes between these airports
Route: LHS V459 SLI V23 MZB
File this flight plan on PilotEdge
Remarks:
Altitude:
(Current/Filed)
25,000ft
Speed:
(Current/Filed)
300kts
Departed: 29-Nov-19 07:52 AM
Arrived: 29-Nov-19 08:27 AM
Distance/Time
Traveled:
179nm/0:34
Distance/Time
To Go:
Arrived

Flight Plot

Page will automatically refresh every two minutes.

Flight plan parsing failed; only flown route is shown


Map Options




Map Legend


Flown Route
Filed Route
Departure Airport
Arrival Airport
Navaid (VOR, NDB)
Fix

Horizontal Profiles

Position Reports

Time Latitude Longitude Heading Altitude Ground
Speed
29-Nov-19 07:50 34.686077 -118.569392 198 24782ft 340kts
29-Nov-19 07:51 34.592876 -118.524450 159 24804ft 375kts
29-Nov-19 07:52 34.499549 -118.467551 161 24810ft 375kts
29-Nov-19 07:53 34.406220 -118.411946 161 24811ft 375kts
29-Nov-19 07:54 34.312472 -118.356317 161 24812ft 374kts
29-Nov-19 07:55 34.218598 -118.300766 161 24816ft 374kts
29-Nov-19 07:56 34.124949 -118.245484 162 24849ft 373kts
29-Nov-19 07:57 34.031600 -118.190511 162 24872ft 373kts
29-Nov-19 07:58 33.937308 -118.138371 173 24871ft 364kts
29-Nov-19 07:59 33.843926 -118.091224 161 24866ft 374kts
29-Nov-19 08:00 33.753786 -118.025006 139 23887ft 387kts
29-Nov-19 08:01 33.683185 -117.937072 140 22320ft 345kts
29-Nov-19 08:02 33.618061 -117.859357 140 20776ft 315kts
29-Nov-19 08:03 33.557924 -117.786730 140 19294ft 310kts
29-Nov-19 08:04 33.495073 -117.711786 140 17840ft 321kts
29-Nov-19 08:05 33.431604 -117.636470 140 16364ft 317kts
29-Nov-19 08:06 33.368744 -117.562176 140 14881ft 312kts
29-Nov-19 08:07 33.307495 -117.490226 140 13413ft 305kts
29-Nov-19 08:08 33.247240 -117.419766 140 11939ft 298kts
29-Nov-19 08:09 33.188162 -117.351471 140 10464ft 290kts
29-Nov-19 08:10 33.118287 -117.320196 172 8957ft 269kts
29-Nov-19 08:11 33.045714 -117.299777 172 7463ft 265kts
29-Nov-19 08:12 32.974636 -117.279754 172 5926ft 259kts
29-Nov-19 08:13 32.905939 -117.260357 172 4939ft 240kts
29-Nov-19 08:14 32.841484 -117.242270 172 4952ft 240kts
29-Nov-19 08:15 32.779934 -117.213408 125 4950ft 253kts
29-Nov-19 08:16 32.764446 -117.131334 101 4546ft 252kts
29-Nov-19 08:17 32.752077 -117.051047 101 4024ft 241kts
29-Nov-19 08:18 32.740616 -116.975794 101 3950ft 224kts
29-Nov-19 08:19 32.709153 -116.931059 190 3965ft 176kts
29-Nov-19 08:20 32.679261 -116.964239 266 3733ft 158kts
29-Nov-19 08:21 32.690582 -117.013019 284 3177ft 150kts
29-Nov-19 08:22 32.701460 -117.057650 285 2151ft 134kts
29-Nov-19 08:23 32.710902 -117.095995 285 1921ft 116kts
29-Nov-19 08:24 32.719314 -117.132051 287 1161ft 109kts
29-Nov-19 08:25 32.728185 -117.167581 288 302ft 116kts
29-Nov-19 08:26 32.733879 -117.188123 17 22ft 13kts
29-Nov-19 08:27 32.733658 -117.185292 106 22ft 12kts
29-Nov-19 08:28 32.732566 -117.180811 105 22ft 14kts
29-Nov-19 08:29 32.732030 -117.177696 46 22ft 6kts
29-Nov-19 08:30 32.732362 -117.177229 101 22ft 0kts
29-Nov-19 08:31 32.732362 -117.177229 101 22ft 0kts
29-Nov-19 08:32 32.732362 -117.177229 101 22ft 0kts
29-Nov-19 08:33 32.732362 -117.177229 101 22ft 0kts
29-Nov-19 08:34 32.732362 -117.177229 101 22ft 0kts
29-Nov-19 08:35 32.732362 -117.177229 101 22ft 0kts
29-Nov-19 08:36 32.732362 -117.177229 101 22ft 0kts
29-Nov-19 08:37 32.732362 -117.177229 101 22ft 0kts
29-Nov-19 08:38 32.732362 -117.177229 101 22ft 0kts
29-Nov-19 08:39 32.732362 -117.177229 101 22ft 0kts
29-Nov-19 08:40 32.732362 -117.177229 101 22ft 0kts

Navigation Log

Ident Type
Flight plan parsing failed, navigation log unavailable